createdAt,value
2019-04-28T00:01:24.425Z,100223.04
2019-04-28T00:03:01.024Z,100225.23
2019-04-28T00:04:36.547Z,100229.66
2019-04-28T00:06:12.068Z,100229.66
2019-04-28T00:07:48.670Z,100227.47
2019-04-28T00:09:24.252Z,100223.84
2019-04-28T00:11:01.841Z,100228.28
2019-04-28T00:12:41.151Z,100227.48
2019-04-28T00:14:16.591Z,100224.14
2019-04-28T00:15:52.174Z,100225.81
2019-04-28T00:17:27.960Z,100233.56
2019-04-28T00:19:03.473Z,100227.77
2019-04-28T00:20:46.354Z,100227.77
2019-04-28T00:22:26.672Z,100228.63
2019-04-28T00:24:09.238Z,100222.83
2019-04-28T00:26:02.637Z,100222.26
2019-04-28T00:27:38.324Z,100222.83
2019-04-28T00:29:14.006Z,100224.50
2019-04-28T00:30:49.525Z,100223.66
2019-04-28T00:32:25.077Z,100225.33
2019-04-28T00:34:01.264Z,100227.28
2019-04-28T00:35:36.999Z,100227.52
2019-04-28T00:37:17.371Z,100227.52
2019-04-28T00:38:52.952Z,100227.79
2019-04-28T00:40:28.449Z,100221.99
2019-04-28T00:42:04.141Z,100220.03
2019-04-28T00:43:41.681Z,100220.59
2019-04-28T00:45:17.348Z,100218.36
2019-04-28T00:46:52.862Z,100220.31
2019-04-28T00:48:28.383Z,100216.16
2019-04-28T00:50:05.374Z,100222.52
2019-04-28T00:51:41.475Z,100223.08
2019-04-28T00:53:17.199Z,100226.38
2019-04-28T00:54:52.930Z,100225.56
2019-04-28T00:56:28.496Z,100220.84
2019-04-28T00:58:04.257Z,100230.54
2019-04-28T00:59:52.217Z,100230.01
2019-04-28T01:01:21.298Z,100228.06
2019-04-28T01:02:57.870Z,100222.25
2019-04-28T01:04:33.408Z,100228.92
2019-04-28T01:06:09.189Z,100225.88
2019-04-28T01:07:44.708Z,100227.26
2019-04-28T01:09:21.778Z,100225.02
2019-04-28T01:10:57.556Z,100220.59
2019-04-28T01:12:33.070Z,100218.95
2019-04-28T01:14:08.611Z,100230.30
2019-04-28T01:15:47.158Z,100218.95
2019-04-28T01:17:24.277Z,100225.58
2019-04-28T01:19:13.420Z,100230.53
2019-04-28T01:20:49.598Z,100229.98
2019-04-28T01:22:25.237Z,100235.77
2019-04-28T01:24:00.844Z,100239.90
2019-04-28T01:25:36.366Z,100238.80
2019-04-28T01:27:30.436Z,100241.25
2019-04-28T01:29:06.086Z,100250.62
2019-04-28T01:30:59.872Z,100245.62
2019-04-28T01:32:49.835Z,100240.33
2019-04-28T01:34:25.479Z,100249.16
2019-04-28T01:36:01.159Z,100248.61
2019-04-28T01:37:36.679Z,100249.13
2019-04-28T01:39:12.210Z,100245.55
2019-04-28T01:40:47.797Z,100247.48
2019-04-28T01:42:23.328Z,100254.39
2019-04-28T01:44:00.149Z,100253.59
2019-04-28T01:45:35.645Z,100253.87
2019-04-28T01:47:11.167Z,100258.28
2019-04-28T01:48:46.685Z,100262.19
2019-04-28T01:50:22.213Z,100259.68
2019-04-28T01:52:00.808Z,100259.15
2019-04-28T01:53:36.567Z,100267.45
2019-04-28T01:55:12.160Z,100259.97
2019-04-28T01:56:47.767Z,100269.64
2019-04-28T01:58:23.356Z,100272.14
2019-04-28T01:59:59.776Z,100274.09
2019-04-28T02:01:35.635Z,100277.69
2019-04-28T02:03:11.181Z,100275.77
2019-04-28T02:04:46.719Z,100277.44
2019-04-28T02:06:22.252Z,100276.31
2019-04-28T02:07:57.776Z,100270.78
2019-04-28T02:09:33.309Z,100267.22
2019-04-28T02:11:10.077Z,100271.13
2019-04-28T02:12:46.123Z,100270.02
2019-04-28T02:14:21.653Z,100270.02
2019-04-28T02:15:57.252Z,100265.31
2019-04-28T02:17:32.779Z,100261.45
2019-04-28T02:19:08.311Z,100270.60
2019-04-28T02:20:47.084Z,100269.22
2019-04-28T02:22:24.255Z,100264.49
2019-04-28T02:24:19.383Z,100264.77
2019-04-28T02:25:54.963Z,100268.59
2019-04-28T02:27:30.593Z,100266.63
2019-04-28T02:29:05.747Z,100270.52
2019-04-28T02:30:48.854Z,100267.75
2019-04-28T02:32:23.910Z,100263.31
2019-04-28T02:33:56.158Z,100260.25
2019-04-28T02:35:34.005Z,100264.39
2019-04-28T02:37:11.254Z,100267.42
2019-04-28T02:38:46.139Z,100272.94
2019-04-28T02:40:21.692Z,100266.02
2019-04-28T02:41:57.282Z,100262.67
2019-04-28T02:43:33.286Z,100258.27
2019-04-28T02:45:11.338Z,100263.22
2019-04-28T02:46:46.447Z,100258.23
2019-04-28T02:48:23.608Z,100258.22
2019-04-28T02:50:01.117Z,100265.38
2019-04-28T02:51:40.737Z,100261.77
2019-04-28T02:53:21.129Z,100269.48
2019-04-28T02:54:59.490Z,100266.70
2019-04-28T02:56:34.774Z,100270.56
2019-04-28T02:58:10.791Z,100271.94
2019-04-28T02:59:50.571Z,100270.53
2019-04-28T03:01:26.686Z,100280.19
2019-04-28T03:03:02.721Z,100275.45
2019-04-28T03:04:40.851Z,100279.31
2019-04-28T03:06:15.539Z,100284.58
2019-04-28T03:07:51.836Z,100286.77
2019-04-28T03:09:30.399Z,100284.29
2019-04-28T03:11:05.333Z,100287.86
2019-04-28T03:12:41.582Z,100289.53
2019-04-28T03:14:17.374Z,100293.38
2019-04-28T03:15:52.901Z,100297.23
2019-04-28T03:17:30.995Z,100312.17
2019-04-28T03:19:05.733Z,100311.59
2019-04-28T03:20:44.034Z,100317.92
2019-04-28T03:22:20.396Z,100317.92
2019-04-28T03:23:56.106Z,100320.91
2019-04-28T03:25:40.824Z,100323.94
2019-04-28T03:27:20.378Z,100324.73
2019-04-28T03:29:12.713Z,100323.86
2019-04-28T03:30:55.795Z,100324.66
2019-04-28T03:32:45.803Z,100323.23
2019-04-28T03:34:12.877Z,100322.12
2019-04-28T03:35:47.845Z,100325.12
2019-04-28T03:37:24.163Z,100329.55
2019-04-28T03:39:00.709Z,100332.05
2019-04-28T03:40:37.976Z,100335.95
2019-04-28T03:42:14.470Z,100335.40
2019-04-28T03:43:51.250Z,100337.07
2019-04-28T03:45:46.838Z,100336.80
2019-04-28T03:47:22.371Z,100333.75
2019-04-28T03:48:57.878Z,100334.28
2019-04-28T03:50:33.398Z,100333.43
2019-04-28T03:52:10.775Z,100330.43
2019-04-28T03:53:46.618Z,100334.84
2019-04-28T03:55:22.131Z,100335.69
2019-04-28T03:56:57.732Z,100335.42
2019-04-28T03:58:33.251Z,100343.17
2019-04-28T04:00:10.910Z,100344.27
2019-04-28T04:01:56.575Z,100350.66
2019-04-28T04:03:24.085Z,100352.58
2019-04-28T04:05:03.387Z,100358.13
2019-04-28T04:06:37.075Z,100354.84
2019-04-28T04:08:13.570Z,100354.28
2019-04-28T04:09:53.717Z,100357.89
2019-04-28T04:11:31.258Z,100359.00
2019-04-28T04:13:10.760Z,100365.35
2019-04-28T04:15:04.047Z,100367.30
2019-04-28T04:16:43.786Z,100370.05
2019-04-28T04:18:21.252Z,100369.73
2019-04-28T04:19:56.871Z,100373.59
2019-04-28T04:21:32.400Z,100377.20
2019-04-28T04:23:11.063Z,100375.55
2019-04-28T04:24:45.137Z,100377.77
2019-04-28T04:26:21.566Z,100376.37
2019-04-28T04:27:57.137Z,100380.55
2019-04-28T04:29:32.981Z,100382.78
2019-04-28T04:31:10.480Z,100380.84
2019-04-28T04:32:45.814Z,100380.05
2019-04-28T04:34:21.364Z,100380.58
2019-04-28T04:35:56.898Z,100375.63
2019-04-28T04:37:32.446Z,100382.00
2019-04-28T04:39:10.800Z,100377.89
2019-04-28T04:40:45.866Z,100378.47
2019-04-28T04:42:21.417Z,100374.59
2019-04-28T04:43:56.956Z,100369.64
2019-04-28T04:45:32.497Z,100372.44
2019-04-28T04:47:10.685Z,100366.91
2019-04-28T04:48:45.922Z,100370.78
2019-04-28T04:50:21.461Z,100363.34
2019-04-28T04:51:56.997Z,100368.31
2019-04-28T04:53:32.857Z,100369.42
2019-04-28T04:55:11.039Z,100366.66
2019-04-28T04:56:45.827Z,100363.63
2019-04-28T04:58:21.539Z,100367.52
2019-04-28T04:59:57.270Z,100368.34
2019-04-28T05:01:34.449Z,100367.77
2019-04-28T05:03:17.647Z,100374.70
2019-04-28T05:04:54.816Z,100370.56
2019-04-28T05:06:39.764Z,100378.59
2019-04-28T05:08:15.857Z,100371.94
2019-04-28T05:09:51.361Z,100377.23
2019-04-28T05:11:26.865Z,100383.30
2019-04-28T05:13:02.400Z,100379.46
2019-04-28T05:14:39.511Z,100388.87
2019-04-28T05:16:15.476Z,100385.56
2019-04-28T05:17:51.046Z,100380.06
2019-04-28T05:19:26.530Z,100391.14
2019-04-28T05:21:02.061Z,100390.91
2019-04-28T05:22:39.974Z,100397.56
2019-04-28T05:24:24.695Z,100392.06
2019-04-28T05:26:01.533Z,100400.67
2019-04-28T05:27:39.792Z,100403.96
2019-04-28T05:29:15.020Z,100403.16
2019-04-28T05:30:50.580Z,100399.56
2019-04-28T05:32:39.364Z,100407.06
2019-04-28T05:34:04.153Z,100404.30
2019-04-28T05:35:40.574Z,100404.83
2019-04-28T05:37:16.166Z,100403.45
2019-04-28T05:38:51.694Z,100408.98
2019-04-28T05:40:27.210Z,100402.89
2019-04-28T05:42:02.770Z,100413.39
2019-04-28T05:43:40.368Z,100403.45
2019-04-28T05:45:16.511Z,100414.50
2019-04-28T05:46:52.032Z,100414.52
2019-04-28T05:48:41.138Z,100418.64
2019-04-28T05:50:19.671Z,100418.85
2019-04-28T05:52:00.644Z,100414.98
2019-04-28T05:53:37.868Z,100421.34
2019-04-28T05:55:18.015Z,100423.81
2019-04-28T05:56:59.721Z,100424.90
2019-04-28T05:58:40.081Z,100426.28
2019-04-28T06:00:22.754Z,100426.55
2019-04-28T06:02:02.706Z,100421.31
2019-04-28T06:03:38.356Z,100431.81
2019-04-28T06:05:13.876Z,100431.52
2019-04-28T06:06:51.043Z,100420.46
2019-04-28T06:08:30.911Z,100426.84
2019-04-28T06:10:10.172Z,100425.46
2019-04-28T06:11:46.787Z,100425.98
2019-04-28T06:13:22.343Z,100430.41
2019-04-28T06:14:57.856Z,100426.55
2019-04-28T06:16:33.374Z,100423.52
2019-04-28T06:18:10.425Z,100421.06
2019-04-28T06:19:46.399Z,100430.48
2019-04-28T06:21:21.920Z,100420.00
2019-04-28T06:22:57.431Z,100421.94
2019-04-28T06:24:33.066Z,100421.95
2019-04-28T06:26:08.628Z,100422.80
2019-04-28T06:27:44.109Z,100423.11
2019-04-28T06:29:19.841Z,100431.43
2019-04-28T06:30:55.919Z,100415.97
2019-04-28T06:32:31.455Z,100425.14
2019-04-28T06:34:07.002Z,100426.02
2019-04-28T06:35:44.882Z,100432.12
2019-04-28T06:37:23.544Z,100429.64
2019-04-28T06:38:59.085Z,100428.55
2019-04-28T06:40:34.594Z,100435.78
2019-04-28T06:42:10.128Z,100438.00
2019-04-28T06:43:45.686Z,100436.62
2019-04-28T06:45:21.708Z,100436.38
2019-04-28T06:46:57.232Z,100446.61
2019-04-28T06:48:32.814Z,100446.91
2019-04-28T06:50:08.340Z,100458.26
2019-04-28T06:51:43.863Z,100463.23
2019-04-28T06:53:19.378Z,100460.20
2019-04-28T06:54:56.172Z,100459.39
2019-04-28T06:56:31.697Z,100454.17
2019-04-28T06:58:07.230Z,100462.22
2019-04-28T06:59:42.759Z,100460.00
2019-04-28T07:01:18.626Z,100465.31
2019-04-28T07:02:54.136Z,100460.87
2019-04-28T07:04:29.664Z,100465.31
2019-04-28T07:06:05.188Z,100469.19
2019-04-28T07:07:40.775Z,100464.78
2019-04-28T07:09:16.375Z,100462.33
2019-04-28T07:10:51.948Z,100466.48
2019-04-28T07:12:27.832Z,100470.61
2019-04-28T07:14:03.463Z,100481.12
2019-04-28T07:15:39.264Z,100479.73
2019-04-28T07:17:14.802Z,100475.89
2019-04-28T07:18:50.341Z,100484.20
2019-04-28T07:20:34.996Z,100479.46
2019-04-28T07:22:12.436Z,100483.36
2019-04-28T07:23:48.067Z,100483.06
2019-04-28T07:25:23.598Z,100491.37
2019-04-28T07:26:59.120Z,100484.17
2019-04-28T07:28:36.278Z,100483.63
2019-04-28T07:30:11.875Z,100483.65
2019-04-28T07:31:47.420Z,100487.82
2019-04-28T07:33:35.312Z,100489.53
2019-04-28T07:35:00.188Z,100498.14
2019-04-28T07:36:35.804Z,100495.11
2019-04-28T07:38:11.325Z,100497.35
2019-04-28T07:39:46.873Z,100501.00
2019-04-28T07:41:22.402Z,100501.03
2019-04-28T07:42:57.924Z,100496.91
2019-04-28T07:44:33.460Z,100504.66
2019-04-28T07:46:09.409Z,100504.66
2019-04-28T07:47:45.000Z,100510.18
2019-04-28T07:49:20.531Z,100517.91
2019-04-28T07:50:56.126Z,100520.15
2019-04-28T07:52:42.207Z,100519.05
2019-04-28T07:54:19.384Z,100519.88
2019-04-28T07:55:55.226Z,100525.13
2019-04-28T07:57:30.844Z,100526.53
2019-04-28T07:59:06.373Z,100517.13
2019-04-28T08:00:41.905Z,100519.94
2019-04-28T08:02:17.422Z,100525.52
2019-04-28T08:03:52.939Z,100522.78
2019-04-28T08:05:28.724Z,100524.49
2019-04-28T08:07:04.247Z,100516.51
2019-04-28T08:08:39.784Z,100521.28
2019-04-28T08:10:15.474Z,100522.70
2019-04-28T08:11:51.013Z,100516.34
2019-04-28T08:13:26.527Z,100516.66
2019-04-28T08:15:02.146Z,100520.84
2019-04-28T08:16:37.874Z,100522.21
2019-04-28T08:18:13.425Z,100521.96
2019-04-28T08:19:48.953Z,100523.09
2019-04-28T08:21:24.496Z,100528.87
2019-04-28T08:23:00.017Z,100541.08
2019-04-28T08:24:35.554Z,100540.78
2019-04-28T08:26:11.098Z,100539.13
2019-04-28T08:27:46.655Z,100541.87
2019-04-28T08:29:22.159Z,100539.04
2019-04-28T08:30:59.265Z,100541.25
2019-04-28T08:32:52.423Z,100545.95
2019-04-28T08:34:29.131Z,100549.80
2019-04-28T08:36:04.949Z,100546.98
2019-04-28T08:37:40.488Z,100550.31
2019-04-28T08:39:16.075Z,100549.72
2019-04-28T08:40:51.616Z,100550.81
2019-04-28T08:42:27.143Z,100552.20
2019-04-28T08:44:02.758Z,100552.50
2019-04-28T08:45:38.432Z,100555.00
2019-04-28T08:47:14.021Z,100552.80
2019-04-28T08:48:49.578Z,100556.67
2019-04-28T08:50:25.134Z,100555.27
2019-04-28T08:52:02.312Z,100557.76
2019-04-28T08:53:38.332Z,100555.27
2019-04-28T08:55:13.901Z,100559.45
2019-04-28T08:56:49.444Z,100560.02
2019-04-28T08:58:24.982Z,100562.50
2019-04-28T09:00:00.570Z,100568.63
2019-04-28T09:01:36.155Z,100573.33
2019-04-28T09:03:11.748Z,100567.47
2019-04-28T09:04:47.259Z,100571.38
2019-04-28T09:06:22.985Z,100566.36
2019-04-28T09:07:59.972Z,100568.32
2019-04-28T09:09:35.545Z,100568.61
2019-04-28T09:11:11.158Z,100576.69
2019-04-28T09:12:47.074Z,100572.79
2019-04-28T09:14:22.573Z,100569.99
2019-04-28T09:15:58.934Z,100566.06
2019-04-28T09:17:36.214Z,100569.07
2019-04-28T09:19:11.813Z,100566.13
2019-04-28T09:20:47.460Z,100559.47
2019-04-28T09:22:23.401Z,100564.77
2019-04-28T09:24:00.159Z,100565.36
2019-04-28T09:25:35.730Z,100564.27
2019-04-28T09:27:11.318Z,100562.69
2019-04-28T09:28:47.290Z,100555.92
2019-04-28T09:30:22.956Z,100556.25
2019-04-28T09:32:05.664Z,100553.05
2019-04-28T09:33:41.207Z,100561.83
2019-04-28T09:35:16.804Z,100559.45
2019-04-28T09:36:52.726Z,100557.60
2019-04-28T09:38:28.266Z,100562.37
2019-04-28T09:40:14.642Z,100559.64
2019-04-28T09:42:07.734Z,100563.30
2019-04-28T09:43:57.969Z,100565.80
2019-04-28T09:45:35.240Z,100560.52
2019-04-28T09:47:12.841Z,100564.26
2019-04-28T09:48:48.366Z,100554.17
2019-04-28T09:50:24.171Z,100555.20
2019-04-28T09:52:01.072Z,100558.97
2019-04-28T09:53:37.815Z,100555.02
2019-04-28T09:55:13.581Z,100558.70
2019-04-28T09:58:25.401Z,100563.49
2019-04-28T10:00:01.313Z,100566.39
2019-04-28T10:01:38.380Z,100557.91
2019-04-28T10:03:14.204Z,100564.20
2019-04-28T10:04:49.787Z,100565.55
2019-04-28T10:06:25.405Z,100566.03
2019-04-28T10:08:02.194Z,100574.91
2019-04-28T10:09:37.716Z,100575.62
2019-04-28T10:11:13.320Z,100563.83
2019-04-28T10:12:49.353Z,100559.02
2019-04-28T10:14:24.640Z,100572.55
2019-04-28T10:16:00.756Z,100565.80
2019-04-28T10:17:36.465Z,100568.01
2019-04-28T10:19:13.831Z,100564.05
2019-04-28T10:20:49.530Z,100568.41
2019-04-28T10:22:25.181Z,100568.28
2019-04-28T10:24:00.710Z,100566.40
2019-04-28T10:25:36.265Z,100571.76
2019-04-28T10:27:11.888Z,100570.17
2019-04-28T10:28:49.317Z,100570.80
2019-04-28T10:30:25.136Z,100567.02
2019-04-28T10:32:00.738Z,100572.97
2019-04-28T10:33:37.715Z,100569.20
2019-04-28T10:35:14.253Z,100573.20
2019-04-28T10:36:50.899Z,100572.45
2019-04-28T10:38:26.399Z,100572.00
2019-04-28T10:40:06.399Z,100571.78
2019-04-28T10:41:42.517Z,100575.72
2019-04-28T10:43:18.059Z,100569.12
2019-04-28T10:44:55.094Z,100579.75
2019-04-28T10:46:30.694Z,100581.72
2019-04-28T10:48:06.363Z,100577.33
2019-04-28T10:49:45.933Z,100574.29
2019-04-28T10:51:22.573Z,100575.41
2019-04-28T10:52:58.196Z,100581.55
2019-04-28T10:54:33.880Z,100575.43
2019-04-28T10:56:09.827Z,100576.00
2019-04-28T10:57:45.532Z,100569.05
2019-04-28T10:59:21.199Z,100571.25
2019-04-28T11:00:56.761Z,100573.73
2019-04-28T11:02:32.270Z,100572.04
2019-04-28T11:04:09.527Z,100575.66
2019-04-28T11:05:46.011Z,100576.72
2019-04-28T11:07:21.655Z,100576.41
2019-04-28T11:09:15.531Z,100579.16
2019-04-28T11:10:51.500Z,100578.05
2019-04-28T11:12:30.575Z,100577.20
2019-04-28T11:14:06.486Z,100583.86
2019-04-28T11:15:42.154Z,100581.08
2019-04-28T11:17:18.113Z,100583.60
2019-04-28T11:18:53.739Z,100581.06
2019-04-28T11:20:29.263Z,100587.48
2019-04-28T11:22:04.857Z,100591.36
2019-04-28T11:23:40.543Z,100587.19
2019-04-28T11:25:16.057Z,100590.25
2019-04-28T11:26:51.645Z,100590.53
2019-04-28T11:28:27.472Z,100584.95
2019-04-28T11:30:03.522Z,100589.37
2019-04-28T11:31:39.376Z,100594.40
2019-04-28T11:33:19.941Z,100587.44
2019-04-28T11:35:00.100Z,100593.01
2019-04-28T11:36:35.619Z,100596.61
2019-04-28T11:38:11.215Z,100595.80
2019-04-28T11:39:46.816Z,100601.34
2019-04-28T11:41:22.355Z,100592.70
2019-04-28T11:42:57.932Z,100596.05
2019-04-28T11:44:35.274Z,100594.38
2019-04-28T11:46:12.683Z,100597.70
2019-04-28T11:47:48.296Z,100595.51
2019-04-28T11:49:30.643Z,100598.59
2019-04-28T11:51:05.219Z,100590.55
2019-04-28T11:52:40.965Z,100592.78
2019-04-28T11:54:18.197Z,100593.08
2019-04-28T11:55:53.756Z,100590.31
2019-04-28T11:57:29.351Z,100593.67
2019-04-28T11:59:04.985Z,100595.91
2019-04-28T12:00:43.540Z,100599.25
2019-04-28T12:02:20.829Z,100595.08
2019-04-28T12:03:58.174Z,100597.01
2019-04-28T12:05:38.614Z,100592.56
2019-04-28T12:07:14.224Z,100596.48
2019-04-28T12:08:51.522Z,100598.70
2019-04-28T12:10:31.348Z,100596.21
2019-04-28T12:12:12.684Z,100599.83
2019-04-28T12:13:52.688Z,100596.50
2019-04-28T12:15:30.021Z,100596.51
2019-04-28T12:17:10.952Z,100596.23
2019-04-28T12:18:49.968Z,100597.36
2019-04-28T12:20:29.793Z,100599.33
2019-04-28T12:22:04.467Z,100601.55
2019-04-28T12:23:40.184Z,100604.34
2019-04-28T12:25:15.885Z,100607.69
2019-04-28T12:26:51.797Z,100609.37
2019-04-28T12:28:27.372Z,100607.13
2019-04-28T12:30:03.055Z,100606.30
2019-04-28T12:31:38.861Z,100602.41
2019-04-28T12:33:14.754Z,100606.83
2019-04-28T12:34:50.456Z,100607.96
2019-04-28T12:36:26.107Z,100609.06
2019-04-28T12:38:02.372Z,100609.87
2019-04-28T12:39:38.041Z,100606.25
2019-04-28T12:41:17.086Z,100604.55
2019-04-28T12:42:52.740Z,100601.45
2019-04-28T12:44:28.606Z,100602.00
2019-04-28T12:46:05.968Z,100604.20
2019-04-28T12:47:41.587Z,100600.30
2019-04-28T12:49:18.776Z,100599.72
2019-04-28T12:50:55.680Z,100599.45
2019-04-28T12:52:31.231Z,100595.28
2019-04-28T12:54:08.431Z,100599.45
2019-04-28T12:55:44.101Z,100605.03
2019-04-28T12:57:19.741Z,100601.72
2019-04-28T12:58:57.500Z,100604.22
2019-04-28T13:00:35.864Z,100608.97
2019-04-28T13:02:29.298Z,100605.63
2019-04-28T13:04:21.856Z,100602.03
2019-04-28T13:06:03.735Z,100600.38
2019-04-28T13:07:37.543Z,100598.73
2019-04-28T13:09:13.547Z,100597.91
2019-04-28T13:10:49.289Z,100604.30
2019-04-28T13:12:25.983Z,100595.12
2019-04-28T13:14:01.629Z,100602.61
2019-04-28T13:15:38.908Z,100597.60
2019-04-28T13:17:14.924Z,100598.98
2019-04-28T13:18:52.065Z,100591.45
2019-04-28T13:20:30.765Z,100588.66
2019-04-28T13:22:07.377Z,100593.08
2019-04-28T13:23:43.012Z,100589.97
2019-04-28T13:25:27.656Z,100587.41
2019-04-28T13:27:05.029Z,100580.92
2019-04-28T13:28:41.010Z,100590.32
2019-04-28T13:30:18.526Z,100580.23
2019-04-28T13:31:54.257Z,100586.05
2019-04-28T13:33:30.038Z,100592.69
2019-04-28T13:35:07.662Z,100593.73
2019-04-28T13:36:43.350Z,100588.41
2019-04-28T13:38:19.040Z,100591.17
2019-04-28T13:39:56.284Z,100589.48
2019-04-28T13:41:33.557Z,100595.91
2019-04-28T13:43:09.165Z,100589.23
2019-04-28T13:45:04.090Z,100583.93
2019-04-28T13:46:39.903Z,100590.35
2019-04-28T13:48:15.587Z,100598.73
2019-04-28T13:49:52.929Z,100590.91
2019-04-28T13:51:28.578Z,100583.11
2019-04-28T13:53:04.753Z,100589.23
2019-04-28T13:54:40.366Z,100589.23
2019-04-28T13:56:20.957Z,100591.16
2019-04-28T13:58:02.083Z,100589.45
2019-04-28T13:59:39.456Z,100586.92
2019-04-28T14:01:20.005Z,100583.02
2019-04-28T14:03:14.629Z,100585.19
2019-04-28T14:05:07.192Z,100586.80
2019-04-28T14:06:47.256Z,100589.23
2019-04-28T14:08:24.668Z,100586.97
2019-04-28T14:10:07.476Z,100586.32
2019-04-28T14:11:43.268Z,100584.27
2019-04-28T14:13:21.624Z,100583.10
2019-04-28T14:15:00.166Z,100581.38
2019-04-28T14:16:35.819Z,100591.69
2019-04-28T14:18:17.297Z,100582.15
2019-04-28T14:19:54.868Z,100579.00
2019-04-28T14:21:30.489Z,100591.25
2019-04-28T14:23:06.082Z,100584.76
2019-04-28T14:24:43.374Z,100584.73
2019-04-28T14:26:20.685Z,100586.67
2019-04-28T14:27:59.119Z,100586.34
2019-04-28T14:29:34.649Z,100586.30
2019-04-28T14:33:16.818Z,100583.17
2019-04-28T14:34:55.672Z,100586.55
2019-04-28T14:36:41.387Z,100587.33
2019-04-28T14:38:09.098Z,100580.91
2019-04-28T14:39:44.841Z,100586.75
2019-04-28T14:41:20.497Z,100581.14
2019-04-28T14:42:57.309Z,100583.36
2019-04-28T14:44:32.924Z,100582.27
2019-04-28T14:46:08.606Z,100580.59
2019-04-28T14:47:44.272Z,100582.81
2019-04-28T14:49:20.000Z,100584.20
2019-04-28T14:50:55.569Z,100576.11
2019-04-28T14:52:31.251Z,100575.25
2019-04-28T14:54:06.874Z,100574.68
2019-04-28T14:55:42.536Z,100575.80
2019-04-28T14:57:18.102Z,100573.31
2019-04-28T14:58:53.751Z,100582.53
2019-04-28T15:00:43.171Z,100579.47
2019-04-28T15:02:26.094Z,100580.56
2019-04-28T15:04:05.839Z,100579.75
2019-04-28T15:05:49.213Z,100582.53
2019-04-28T15:07:34.322Z,100583.66
2019-04-28T15:09:32.624Z,100585.36
2019-04-28T15:11:24.646Z,100584.00
2019-04-28T15:13:00.366Z,100574.56
2019-04-28T15:14:36.014Z,100582.70
2019-04-28T15:16:11.636Z,100573.51
2019-04-28T15:17:48.586Z,100581.36
2019-04-28T15:19:24.204Z,100575.81
2019-04-28T15:21:01.446Z,100577.23
2019-04-28T15:22:37.002Z,100576.70
2019-04-28T15:24:12.753Z,100583.13
2019-04-28T15:25:48.397Z,100580.33
2019-04-28T15:27:23.990Z,100581.97
2019-04-28T15:28:59.754Z,100582.55
2019-04-28T15:30:37.110Z,100587.00
2019-04-28T15:32:14.679Z,100581.97
2019-04-28T15:33:50.321Z,100579.75
2019-04-28T15:35:25.912Z,100580.03
2019-04-28T15:37:09.492Z,100583.94
2019-04-28T15:38:38.830Z,100587.85
2019-04-28T15:40:16.146Z,100591.22
2019-04-28T15:41:54.606Z,100580.88
2019-04-28T15:43:30.330Z,100580.33
2019-04-28T15:45:08.844Z,100575.33
2019-04-28T15:46:47.441Z,100585.42
2019-04-28T15:48:23.230Z,100586.88
2019-04-28T15:49:58.810Z,100585.00
2019-04-28T15:51:37.947Z,100590.59
2019-04-28T15:53:13.592Z,100583.41
2019-04-28T15:54:50.199Z,100582.91
2019-04-28T15:56:27.410Z,100588.53
2019-04-28T15:58:20.977Z,100579.68
2019-04-28T15:59:56.640Z,100583.09
2019-04-28T16:01:32.228Z,100582.34
2019-04-28T16:03:08.140Z,100581.86
2019-04-28T16:04:43.795Z,100581.91
2019-04-28T16:06:19.417Z,100579.70
2019-04-28T16:07:55.183Z,100575.33
2019-04-28T16:09:33.718Z,100578.97
2019-04-28T16:11:12.334Z,100571.23
2019-04-28T16:12:47.970Z,100575.73
2019-04-28T16:14:23.562Z,100571.83
2019-04-28T16:16:00.307Z,100571.03
2019-04-28T16:17:35.912Z,100572.15
2019-04-28T16:19:13.208Z,100570.22
2019-04-28T16:20:50.374Z,100574.68
2019-04-28T16:22:28.848Z,100570.83
2019-04-28T16:24:04.624Z,100567.27
2019-04-28T16:25:39.969Z,100573.14
2019-04-28T16:27:17.256Z,100568.42
2019-04-28T16:28:53.307Z,100574.01
2019-04-28T16:30:31.083Z,100572.63
2019-04-28T16:32:09.724Z,100572.65
2019-04-28T16:33:44.424Z,100573.23
2019-04-28T16:35:20.174Z,100572.43
2019-04-28T16:36:55.818Z,100583.58
2019-04-28T16:38:31.582Z,100578.03
2019-04-28T16:40:09.590Z,100579.44
2019-04-28T16:41:45.420Z,100585.30
2019-04-28T16:43:20.997Z,100580.86
2019-04-28T16:44:56.645Z,100580.87
2019-04-28T16:46:32.228Z,100582.55
2019-04-28T16:48:07.801Z,100580.32
2019-04-28T16:49:48.849Z,100583.39
2019-04-28T16:51:24.491Z,100585.36
2019-04-28T16:53:04.741Z,100582.85
2019-04-28T16:54:40.662Z,100577.88
2019-04-28T16:56:34.279Z,100572.89
2019-04-28T16:58:16.673Z,100585.70
2019-04-28T16:59:53.885Z,100589.03
2019-04-28T17:01:53.256Z,100586.27
2019-04-28T17:03:31.820Z,100585.98
2019-04-28T17:05:08.408Z,100585.97
2019-04-28T17:06:44.375Z,100596.56
2019-04-28T17:08:19.980Z,100595.17
2019-04-28T17:09:55.989Z,100599.92
2019-04-28T17:11:31.842Z,100604.91
2019-04-28T17:13:07.408Z,100597.96
2019-04-28T17:14:43.192Z,100597.96
2019-04-28T17:16:18.797Z,100602.14
2019-04-28T17:17:57.019Z,100601.86
2019-04-28T17:19:31.883Z,100600.75
2019-04-28T17:21:39.209Z,100601.58
2019-04-28T17:26:22.759Z,100605.51
2019-04-28T17:27:58.674Z,100597.72
2019-04-28T17:29:37.618Z,100600.78
2019-04-28T17:31:13.296Z,100602.17
2019-04-28T17:32:49.007Z,100603.03
2019-04-28T17:34:24.786Z,100607.20
2019-04-28T17:36:05.006Z,100603.28
2019-04-28T17:57:21.650Z,100620.55
2019-04-28T17:58:57.608Z,100620.83
2019-04-28T18:00:40.509Z,100628.59
2019-04-28T18:02:33.403Z,100626.95
2019-04-28T18:04:19.734Z,100633.61
2019-04-28T18:05:59.825Z,100641.66
2019-04-28T18:07:36.993Z,100641.65
2019-04-28T18:09:13.489Z,100636.09
2019-04-28T18:13:00.361Z,100646.09
2019-04-28T18:14:28.195Z,100647.18
2019-04-28T18:16:05.356Z,100652.20
2019-04-28T18:17:42.547Z,100654.11
2019-04-28T18:19:25.694Z,100656.34
2019-04-28T18:21:01.221Z,100659.09
2019-04-28T18:22:36.815Z,100650.75
2019-04-28T18:24:12.330Z,100657.68
2019-04-28T18:25:47.852Z,100660.45
2019-04-28T18:27:23.817Z,100658.77
2019-04-28T18:28:59.935Z,100662.39
2019-04-28T18:30:37.135Z,100664.02
2019-04-28T18:32:30.597Z,100667.06
2019-04-28T18:34:07.762Z,100671.22
2019-04-28T18:35:44.940Z,100670.38
2019-04-28T18:37:20.244Z,100672.28
2019-04-28T18:39:01.044Z,100673.41
2019-04-28T18:40:43.461Z,100675.06
2019-04-28T18:42:21.652Z,100675.29
2019-04-28T18:44:05.068Z,100672.78
2019-04-28T18:45:40.586Z,100679.70
2019-04-28T18:47:17.196Z,100676.36
2019-04-28T18:48:52.731Z,100674.41
2019-04-28T18:50:28.245Z,100681.89
2019-04-28T18:52:03.775Z,100676.33
2019-04-28T18:53:40.934Z,100682.66
2019-04-28T18:55:17.703Z,100686.81
2019-04-28T18:56:53.221Z,100690.41
2019-04-28T18:58:28.740Z,100691.77
2019-04-28T19:00:06.831Z,100688.12